createdAt,value
2024-03-05T00:01:05.876Z,7.33
2024-03-05T00:03:43.348Z,7.42
2024-03-05T00:06:11.112Z,7.33
2024-03-05T00:08:38.761Z,7.26
2024-03-05T00:11:22.287Z,7.12
2024-03-05T00:13:49.489Z,7.06
2024-03-05T00:16:21.950Z,7.09
2024-03-05T00:18:49.245Z,7.10
2024-03-05T00:21:21.439Z,7.10
2024-03-05T00:23:53.424Z,7.13
2024-03-05T00:26:31.156Z,7.25
2024-03-05T00:28:58.464Z,7.30
2024-03-05T00:31:26.782Z,7.50
2024-03-05T00:33:54.284Z,7.57
2024-03-05T00:36:22.057Z,7.53
2024-03-05T00:38:54.453Z,7.58
2024-03-05T00:41:26.452Z,7.56
2024-03-05T00:43:55.365Z,7.65
2024-03-05T00:46:28.063Z,7.74
2024-03-05T00:48:59.378Z,7.72
2024-03-05T00:51:31.989Z,7.71
2024-03-05T00:53:59.170Z,7.75
2024-03-05T00:56:28.491Z,7.75
2024-03-05T00:59:01.432Z,7.54
2024-03-05T01:01:29.204Z,7.53
2024-03-05T01:03:56.716Z,7.49
2024-03-05T01:06:24.525Z,7.55
2024-03-05T01:08:51.928Z,7.53
2024-03-05T01:11:19.671Z,7.44
2024-03-05T01:13:51.475Z,7.31
2024-03-05T01:16:25.109Z,7.32
2024-03-05T01:18:52.473Z,7.22
2024-03-05T01:21:24.826Z,7.09
2024-03-05T01:23:52.174Z,7.00
2024-03-05T01:26:19.885Z,6.98
2024-03-05T01:28:47.258Z,6.93
2024-03-05T01:31:21.289Z,6.96
2024-03-05T01:33:48.695Z,6.96
2024-03-05T01:36:16.537Z,7.02
2024-03-05T01:38:43.883Z,7.07
2024-03-05T01:41:11.577Z,6.86
2024-03-05T01:43:38.973Z,6.92
2024-03-05T01:46:11.560Z,6.99
2024-03-05T01:48:43.060Z,7.07
2024-03-05T01:51:12.297Z,7.02
2024-03-05T01:53:39.913Z,6.98
2024-03-05T01:56:12.770Z,6.97
2024-03-05T01:58:41.354Z,7.00
2024-03-05T02:01:15.048Z,7.01
2024-03-05T02:03:43.992Z,7.07
2024-03-05T02:06:16.739Z,7.01
2024-03-05T02:08:44.291Z,7.01
2024-03-05T02:11:13.385Z,7.03
2024-03-05T02:13:41.021Z,6.96
2024-03-05T02:16:08.831Z,6.86
2024-03-05T02:18:43.442Z,6.85
2024-03-05T02:21:21.180Z,6.92
2024-03-05T02:23:52.439Z,6.85
2024-03-05T02:26:24.422Z,6.89
2024-03-05T02:28:53.116Z,6.90
2024-03-05T02:31:26.584Z,7.03
2024-03-05T02:33:58.444Z,6.97
2024-03-05T02:36:30.903Z,7.09
2024-03-05T02:38:58.237Z,7.11
2024-03-05T02:41:36.490Z,7.03
2024-03-05T02:44:04.043Z,7.01
2024-03-05T02:46:35.964Z,7.05
2024-03-05T02:49:03.311Z,7.00
2024-03-05T02:51:36.123Z,7.11
2024-03-05T02:54:03.532Z,7.20
2024-03-05T02:56:35.795Z,7.20
2024-03-05T02:59:05.721Z,7.10
2024-03-05T03:01:36.261Z,7.07
2024-03-05T03:04:03.719Z,7.10
2024-03-05T03:06:35.841Z,7.09
2024-03-05T03:09:05.084Z,7.03
2024-03-05T03:11:33.553Z,6.95
2024-03-05T03:14:00.992Z,6.90
2024-03-05T03:16:28.941Z,6.86
2024-03-05T03:18:56.292Z,6.83
2024-03-05T03:21:24.064Z,6.78
2024-03-05T03:23:52.805Z,6.79
2024-03-05T03:26:21.091Z,6.76
2024-03-05T03:28:48.487Z,6.81
2024-03-05T03:31:18.230Z,6.83
2024-03-05T03:33:45.651Z,6.67
2024-03-05T03:36:22.882Z,6.76
2024-03-05T03:38:50.556Z,6.74
2024-03-05T03:41:20.008Z,6.77
2024-03-05T03:43:47.548Z,6.76
2024-03-05T03:46:16.033Z,6.83
2024-03-05T03:48:43.431Z,6.72
2024-03-05T03:51:11.311Z,6.53
2024-03-05T03:53:38.738Z,6.72
2024-03-05T03:56:07.132Z,6.74
2024-03-05T03:58:35.983Z,6.68
2024-03-05T04:01:04.605Z,6.73
2024-03-05T04:03:32.097Z,6.63
2024-03-05T04:05:59.867Z,6.51
2024-03-05T04:08:27.234Z,6.55
2024-03-05T04:10:57.803Z,6.47
2024-03-05T04:13:25.177Z,6.49
2024-03-05T04:15:55.014Z,6.46
2024-03-05T04:18:22.404Z,6.45
2024-03-05T04:20:50.495Z,6.28
2024-03-05T04:23:18.194Z,6.44
2024-03-05T04:25:45.991Z,6.47
2024-03-05T04:28:13.512Z,6.47
2024-03-05T04:30:41.968Z,6.39
2024-03-05T04:33:10.955Z,6.37
2024-03-05T04:35:38.921Z,6.48
2024-03-05T04:38:09.198Z,6.36
2024-03-05T04:40:37.341Z,6.39
2024-03-05T04:43:05.268Z,6.39
2024-03-05T04:45:38.651Z,6.35
2024-03-05T04:48:06.532Z,6.39
2024-03-05T04:50:36.303Z,6.49
2024-03-05T04:53:03.881Z,6.37
2024-03-05T04:55:32.216Z,6.43
2024-03-05T04:57:59.713Z,6.30
2024-03-05T05:00:31.537Z,6.40
2024-03-05T05:02:59.192Z,6.31
2024-03-05T05:05:27.969Z,6.29
2024-03-05T05:07:59.791Z,6.22
2024-03-05T05:10:27.935Z,6.13
2024-03-05T05:12:55.768Z,6.08
2024-03-05T05:15:29.122Z,6.06
2024-03-05T05:17:56.717Z,6.08
2024-03-05T05:20:24.650Z,6.14
2024-03-05T05:22:53.325Z,6.15
2024-03-05T05:25:22.687Z,6.21
2024-03-05T05:27:50.410Z,6.02
2024-03-05T05:30:19.477Z,6.04
2024-03-05T05:32:47.692Z,5.97
2024-03-05T05:35:17.426Z,5.98
2024-03-05T05:37:44.900Z,6.04
2024-03-05T05:40:13.370Z,5.94
2024-03-05T05:42:43.305Z,5.90
2024-03-05T05:45:11.079Z,5.91
2024-03-05T05:47:39.280Z,5.95
2024-03-05T05:50:08.678Z,6.10
2024-03-05T05:52:36.194Z,6.28
2024-03-05T05:55:04.855Z,6.23
2024-03-05T05:57:32.372Z,6.27
2024-03-05T06:00:02.232Z,6.23
2024-03-05T06:02:30.023Z,6.28
2024-03-05T06:04:58.325Z,6.14
2024-03-05T06:07:25.716Z,6.04
2024-03-05T06:09:54.182Z,6.00
2024-03-05T06:12:24.086Z,6.00
2024-03-05T06:14:53.266Z,5.98
2024-03-05T06:17:22.332Z,6.07
2024-03-05T06:19:50.571Z,6.10
2024-03-05T06:22:23.254Z,6.02
2024-03-05T06:24:54.833Z,5.88
2024-03-05T06:27:22.508Z,5.90
2024-03-05T06:29:50.485Z,5.86
2024-03-05T06:32:17.872Z,5.78
2024-03-05T06:34:47.083Z,5.86
2024-03-05T06:37:16.442Z,5.86
2024-03-05T06:39:44.841Z,5.91
2024-03-05T06:42:12.452Z,5.93
2024-03-05T06:44:42.825Z,5.79
2024-03-05T06:47:13.157Z,5.93
2024-03-05T06:49:41.037Z,5.84
2024-03-05T06:52:10.207Z,5.92
2024-03-05T06:54:38.275Z,5.96
2024-03-05T06:57:06.119Z,5.98
2024-03-05T06:59:34.343Z,5.93
2024-03-05T07:02:02.418Z,6.01
2024-03-05T07:04:30.802Z,6.15
2024-03-05T07:06:58.678Z,6.35
2024-03-05T07:09:29.801Z,6.42
2024-03-05T07:12:00.698Z,6.47
2024-03-05T07:14:28.978Z,6.48
2024-03-05T07:16:56.670Z,6.44
2024-03-05T07:19:24.873Z,6.50
2024-03-05T07:21:53.072Z,6.67
2024-03-05T07:24:21.054Z,6.72
2024-03-05T07:26:56.765Z,6.74
2024-03-05T07:29:32.472Z,6.70
2024-03-05T07:32:00.009Z,6.72
2024-03-05T07:34:27.902Z,6.92
2024-03-05T07:36:58.923Z,6.88
2024-03-05T07:39:26.938Z,6.85
2024-03-05T07:41:55.826Z,6.90
2024-03-05T07:44:23.740Z,6.98
2024-03-05T07:46:51.491Z,6.91
2024-03-05T07:49:22.449Z,6.86
2024-03-05T07:51:52.270Z,6.93
2024-03-05T07:54:20.050Z,6.84
2024-03-05T07:56:48.124Z,6.96
2024-03-05T07:59:17.690Z,6.94
2024-03-05T08:01:48.582Z,6.89
2024-03-05T08:04:16.980Z,7.01
2024-03-05T08:06:44.928Z,7.04
2024-03-05T08:09:13.263Z,7.22
2024-03-05T08:11:41.231Z,7.38
2024-03-05T08:14:09.954Z,7.27
2024-03-05T08:16:40.396Z,7.27
2024-03-05T08:19:09.158Z,7.37
2024-03-05T08:21:36.391Z,7.33
2024-03-05T08:24:07.489Z,7.29
2024-03-05T08:26:35.378Z,7.41
2024-03-05T08:29:03.559Z,7.53
2024-03-05T08:31:31.529Z,7.64
2024-03-05T08:34:01.246Z,7.72
2024-03-05T08:36:28.953Z,7.82
2024-03-05T08:38:59.913Z,7.77
2024-03-05T08:41:27.691Z,7.57
2024-03-05T08:43:56.047Z,7.58
2024-03-05T08:46:29.511Z,7.68
2024-03-05T08:48:57.803Z,7.66
2024-03-05T08:51:27.353Z,7.57
2024-03-05T08:53:56.973Z,7.63
2024-03-05T08:56:24.542Z,7.67
2024-03-05T08:58:54.852Z,7.76
2024-03-05T09:01:22.939Z,7.91
2024-03-05T09:03:51.070Z,7.97
2024-03-05T09:06:22.755Z,8.23
2024-03-05T09:08:52.841Z,8.56
2024-03-05T09:11:22.700Z,8.47
2024-03-05T09:13:50.616Z,8.62
2024-03-05T09:16:19.250Z,8.68
2024-03-05T09:18:48.362Z,8.62
2024-03-05T09:21:16.277Z,8.64
2024-03-05T09:23:45.313Z,8.79
2024-03-05T09:26:14.590Z,8.81
2024-03-05T09:28:42.967Z,8.72
2024-03-05T09:31:10.659Z,8.88
2024-03-05T09:33:38.384Z,8.84
2024-03-05T09:36:07.040Z,8.80
2024-03-05T09:38:35.401Z,8.63
2024-03-05T09:41:06.725Z,8.58
2024-03-05T09:43:41.588Z,8.52
2024-03-05T09:46:10.121Z,8.61
2024-03-05T09:48:38.674Z,8.62
2024-03-05T09:51:09.496Z,8.84
2024-03-05T09:53:38.608Z,9.09
2024-03-05T09:56:07.614Z,8.99
2024-03-05T09:58:39.131Z,8.84
2024-03-05T10:01:08.088Z,8.82
2024-03-05T10:03:38.134Z,8.89
2024-03-05T10:06:07.892Z,9.18
2024-03-05T10:08:36.751Z,9.12
2024-03-05T10:11:05.726Z,9.26
2024-03-05T10:13:37.205Z,9.58
2024-03-05T10:16:15.298Z,9.85
2024-03-05T10:18:43.304Z,9.90
2024-03-05T10:21:17.645Z,9.84
2024-03-05T10:23:46.642Z,9.53
2024-03-05T10:26:24.445Z,9.63
2024-03-05T10:28:56.498Z,9.80
2024-03-05T10:31:25.587Z,9.88
2024-03-05T10:33:55.322Z,10.04
2024-03-05T10:36:30.202Z,9.94
2024-03-05T10:39:01.966Z,10.10
2024-03-05T10:41:39.289Z,10.12
2024-03-05T10:44:19.400Z,10.25
2024-03-05T10:46:48.490Z,10.28
2024-03-05T10:49:17.512Z,10.39
2024-03-05T10:51:47.024Z,10.54
2024-03-05T10:54:15.820Z,10.59
2024-03-05T10:56:48.889Z,10.49
2024-03-05T10:59:19.043Z,10.41
2024-03-05T11:01:50.075Z,10.38
2024-03-05T11:04:25.838Z,10.50
2024-03-05T11:06:56.837Z,10.48
2024-03-05T11:09:25.367Z,10.36
2024-03-05T11:11:58.516Z,10.42
2024-03-05T11:14:28.944Z,10.17
2024-03-05T11:17:04.528Z,9.68
2024-03-05T11:19:32.981Z,9.28
2024-03-05T11:22:00.668Z,8.93
2024-03-05T11:24:28.447Z,8.76
2024-03-05T11:27:02.997Z,8.38
2024-03-05T11:29:38.611Z,8.17
2024-03-05T11:32:11.305Z,8.09
2024-03-05T11:34:46.616Z,8.00
2024-03-05T11:37:17.000Z,7.98
2024-03-05T11:39:47.718Z,7.92
2024-03-05T11:42:18.797Z,7.92
2024-03-05T11:44:57.881Z,7.85
2024-03-05T11:47:26.343Z,7.87
2024-03-05T11:49:55.438Z,7.90
2024-03-05T11:52:25.423Z,7.89
2024-03-05T11:55:01.252Z,8.00
2024-03-05T11:57:29.244Z,7.96
2024-03-05T11:59:59.158Z,7.98
2024-03-05T12:02:26.865Z,7.98
2024-03-05T12:05:03.949Z,8.04
2024-03-05T12:07:31.501Z,8.09
2024-03-05T12:09:59.565Z,8.02
2024-03-05T12:12:27.801Z,7.86
2024-03-05T12:14:56.838Z,7.78
2024-03-05T12:17:37.596Z,7.83
2024-03-05T12:20:10.504Z,7.92
2024-03-05T12:22:39.227Z,7.91
2024-03-05T12:25:15.723Z,7.86
2024-03-05T12:27:51.081Z,7.80
2024-03-05T12:30:35.084Z,7.81
2024-03-05T12:33:07.643Z,7.66
2024-03-05T12:35:37.576Z,7.69
2024-03-05T12:38:25.156Z,7.66
2024-03-05T12:41:04.428Z,7.66
2024-03-05T12:43:32.516Z,7.73
2024-03-05T12:46:01.110Z,7.86
2024-03-05T12:48:30.001Z,7.94
2024-03-05T12:51:01.035Z,7.90
2024-03-05T12:53:28.671Z,7.88
2024-03-05T12:56:03.261Z,7.98
2024-03-05T12:58:42.527Z,8.01
2024-03-05T13:01:10.930Z,7.96
2024-03-05T13:03:39.986Z,7.99
2024-03-05T13:06:10.996Z,8.06
2024-03-05T13:08:39.690Z,7.92
2024-03-05T13:11:08.086Z,7.86
2024-03-05T13:13:35.652Z,8.04
2024-03-05T13:16:04.347Z,8.15
2024-03-05T13:18:31.877Z,8.31
2024-03-05T13:21:01.320Z,8.32
2024-03-05T13:23:30.993Z,8.29
2024-03-05T13:25:59.812Z,8.37
2024-03-05T13:28:30.320Z,8.29
2024-03-05T13:30:58.685Z,8.15
2024-03-05T13:33:27.030Z,8.26
2024-03-05T13:35:54.756Z,8.44
2024-03-05T13:38:24.476Z,8.33
2024-03-05T13:40:52.672Z,8.32
2024-03-05T13:43:20.872Z,8.26
2024-03-05T13:45:49.117Z,8.15
2024-03-05T13:48:17.277Z,8.12
2024-03-05T13:50:44.632Z,8.31
2024-03-05T13:53:15.337Z,8.40
2024-03-05T13:55:47.746Z,8.63
2024-03-05T13:58:15.791Z,8.73
2024-03-05T14:00:43.637Z,8.75
2024-03-05T14:03:13.537Z,8.69
2024-03-05T14:05:41.645Z,8.31
2024-03-05T14:08:10.484Z,8.44
2024-03-05T14:10:38.652Z,8.35
2024-03-05T14:13:09.081Z,8.47
2024-03-05T14:15:36.880Z,8.33
2024-03-05T14:18:08.099Z,8.26
2024-03-05T14:20:36.396Z,8.18
2024-03-05T14:23:12.574Z,8.34
2024-03-05T14:25:50.950Z,8.25
2024-03-05T14:28:24.507Z,8.34
2024-03-05T14:31:00.604Z,8.30
2024-03-05T14:33:39.517Z,8.21
2024-03-05T14:36:28.738Z,8.23
2024-03-05T14:39:01.710Z,8.31
2024-03-05T14:41:44.323Z,8.25
2024-03-05T14:44:40.390Z,8.26
2024-03-05T14:47:13.573Z,8.38
2024-03-05T14:49:45.961Z,8.55
2024-03-05T14:52:19.448Z,8.56
2024-03-05T14:54:51.845Z,8.75
2024-03-05T14:57:22.651Z,8.82
2024-03-05T15:00:10.839Z,8.78
2024-03-05T15:02:42.655Z,8.54
2024-03-05T15:05:23.053Z,8.58
2024-03-05T15:08:11.062Z,8.43
2024-03-05T15:10:44.672Z,8.28
2024-03-05T15:13:14.437Z,8.44
2024-03-05T15:15:57.824Z,8.41
2024-03-05T15:18:40.593Z,8.45
2024-03-05T15:21:38.595Z,8.52
2024-03-05T15:24:16.585Z,8.50
2024-03-05T15:27:04.345Z,8.49
2024-03-05T15:29:47.467Z,8.52
2024-03-05T15:32:23.631Z,8.45
2024-03-05T15:34:56.330Z,8.37
2024-03-05T15:37:25.288Z,8.42
2024-03-05T15:39:52.902Z,8.43
2024-03-05T15:42:21.073Z,8.46
2024-03-05T15:44:48.486Z,8.36
2024-03-05T15:47:16.516Z,8.18
2024-03-05T15:49:59.594Z,8.28
2024-03-05T15:52:31.556Z,8.28
2024-03-05T15:54:59.326Z,8.33
2024-03-05T15:57:33.126Z,8.29
2024-03-05T16:00:01.643Z,8.30
2024-03-05T16:02:29.820Z,8.21
2024-03-05T16:05:17.826Z,8.24
2024-03-05T16:07:57.026Z,8.21
2024-03-05T16:10:35.587Z,8.24
2024-03-05T16:13:11.515Z,8.26
2024-03-05T16:15:38.912Z,8.23
2024-03-05T16:18:08.387Z,8.12
2024-03-05T16:20:41.005Z,8.03
2024-03-05T16:23:09.480Z,8.08
2024-03-05T16:25:41.415Z,8.06
2024-03-05T16:28:11.011Z,7.99
2024-03-05T16:30:39.462Z,7.95
2024-03-05T16:33:07.974Z,7.91
2024-03-05T16:35:40.981Z,7.95
2024-03-05T16:38:13.136Z,7.98
2024-03-05T16:40:40.992Z,7.94
2024-03-05T16:43:08.673Z,8.03
2024-03-05T16:45:37.059Z,7.96
2024-03-05T16:48:11.724Z,8.10
2024-03-05T16:50:44.987Z,8.12
2024-03-05T16:53:12.815Z,8.13
2024-03-05T16:55:40.201Z,8.10
2024-03-05T16:58:20.451Z,7.99
2024-03-05T17:00:55.153Z,7.90
2024-03-05T17:03:27.024Z,7.90
2024-03-05T17:05:59.981Z,7.85
2024-03-05T17:08:31.989Z,7.87
2024-03-05T17:10:59.530Z,7.82
2024-03-05T17:13:33.223Z,7.81
2024-03-05T17:16:01.588Z,7.79
2024-03-05T17:18:29.951Z,7.71
2024-03-05T17:20:59.546Z,7.54
2024-03-05T17:23:32.413Z,7.47
2024-03-05T17:26:13.793Z,7.52
2024-03-05T17:28:47.493Z,7.52
2024-03-05T17:31:18.692Z,7.55
2024-03-05T17:34:04.651Z,7.62
2024-03-05T17:36:51.440Z,7.67
2024-03-05T17:39:21.378Z,7.69
2024-03-05T17:41:53.372Z,7.69
2024-03-05T17:44:23.015Z,7.62
2024-03-05T17:46:56.149Z,7.58
2024-03-05T17:49:35.136Z,7.53
2024-03-05T17:52:05.718Z,7.54
2024-03-05T17:54:33.796Z,7.56
2024-03-05T17:57:01.172Z,7.57
2024-03-05T17:59:33.973Z,7.54
2024-03-05T18:02:01.291Z,7.54
2024-03-05T18:04:42.877Z,7.44
2024-03-05T18:07:14.722Z,7.41
2024-03-05T18:09:47.736Z,7.37
2024-03-05T18:12:23.903Z,7.24
2024-03-05T18:15:11.054Z,7.22
2024-03-05T18:17:45.381Z,7.19
2024-03-05T18:20:22.374Z,7.13
2024-03-05T18:22:51.393Z,7.07
2024-03-05T18:25:24.871Z,7.01
2024-03-05T18:28:10.208Z,6.96
2024-03-05T18:30:40.480Z,7.03
2024-03-05T18:33:21.364Z,7.03
2024-03-05T18:39:04.653Z,7.02
2024-03-05T18:41:47.939Z,6.85
2024-03-05T18:44:32.011Z,6.90
2024-03-05T18:50:10.130Z,6.83
2024-03-05T18:52:51.027Z,6.66
2024-03-05T18:55:33.119Z,6.61
2024-03-05T18:58:10.496Z,6.53
2024-03-05T19:00:57.105Z,6.55
2024-03-05T19:03:29.667Z,6.55
2024-03-05T19:06:03.567Z,6.51
2024-03-05T19:08:53.807Z,6.47
2024-03-05T19:11:28.978Z,6.42
2024-03-05T19:14:08.226Z,6.56
2024-03-05T19:16:37.692Z,6.62
2024-03-05T19:19:36.687Z,6.43
2024-03-05T19:22:04.515Z,6.44
2024-03-05T19:24:41.231Z,6.41
2024-03-05T19:27:16.188Z,6.41
2024-03-05T19:29:44.726Z,6.41
2024-03-05T19:32:22.413Z,6.29
2024-03-05T19:34:50.632Z,6.47
2024-03-05T19:37:36.126Z,6.58
2024-03-05T19:40:10.990Z,6.62
2024-03-05T19:42:46.911Z,6.67
2024-03-05T19:45:21.185Z,6.68
2024-03-05T19:47:54.863Z,6.58
2024-03-05T19:50:29.474Z,6.57
2024-03-05T19:53:02.518Z,6.65
2024-03-05T19:55:43.531Z,6.64
2024-03-05T19:58:22.701Z,6.66
2024-03-05T20:01:05.684Z,6.75
2024-03-05T20:03:33.720Z,6.74
2024-03-05T20:06:15.187Z,6.73
2024-03-05T20:08:45.216Z,6.69
2024-03-05T20:11:24.143Z,6.74
2024-03-05T20:13:58.647Z,6.78
2024-03-05T20:16:27.582Z,6.83
2024-03-05T20:18:55.203Z,6.77
2024-03-05T20:21:23.029Z,6.73
2024-03-05T20:23:50.549Z,6.70
2024-03-05T20:26:23.185Z,6.69
2024-03-05T20:28:51.325Z,6.62
2024-03-05T20:31:20.677Z,6.66
2024-03-05T20:33:48.622Z,6.59
2024-03-05T20:36:25.391Z,6.43
2024-03-05T20:38:55.966Z,6.28
2024-03-05T20:41:24.642Z,6.34
2024-03-05T20:43:58.082Z,6.27
2024-03-05T20:46:31.440Z,6.16
2024-03-05T20:48:59.415Z,6.14
2024-03-05T20:51:27.413Z,6.14
2024-03-05T20:54:00.495Z,6.12
2024-03-05T20:56:33.126Z,6.21
2024-03-05T20:59:03.247Z,6.21
2024-03-05T21:01:41.558Z,6.28
2024-03-05T21:04:18.453Z,6.28
2024-03-05T21:06:46.466Z,6.26
2024-03-05T21:09:14.485Z,6.34
2024-03-05T21:11:42.588Z,6.35
2024-03-05T21:14:10.181Z,6.27
2024-03-05T21:16:45.558Z,6.26
2024-03-05T21:19:13.350Z,6.24
2024-03-05T21:21:49.393Z,6.19
2024-03-05T21:24:17.167Z,6.17
2024-03-05T21:29:20.928Z,6.40
2024-03-05T21:31:58.458Z,6.48
2024-03-05T21:34:26.158Z,6.51
2024-03-05T21:36:54.103Z,6.48
2024-03-05T21:39:26.485Z,6.41
2024-03-05T21:41:59.151Z,6.44
2024-03-05T21:44:34.792Z,6.40
2024-03-05T21:47:10.804Z,6.38
2024-03-05T21:49:39.512Z,6.43
2024-03-05T21:52:15.283Z,6.43
2024-03-05T21:54:45.878Z,6.47
2024-03-05T21:57:18.002Z,6.49
2024-03-05T21:59:45.460Z,6.50
2024-03-05T22:02:30.461Z,6.50
2024-03-05T22:05:02.542Z,6.52
2024-03-05T22:07:35.496Z,6.49
2024-03-05T22:10:03.807Z,6.49
2024-03-05T22:12:31.520Z,6.50
2024-03-05T22:15:03.461Z,6.63
2024-03-05T22:17:33.019Z,6.54
2024-03-05T22:20:01.099Z,6.61
2024-03-05T22:22:29.192Z,6.65
2024-03-05T22:24:57.727Z,6.66
2024-03-05T22:27:30.427Z,6.63
2024-03-05T22:29:57.921Z,6.68
2024-03-05T22:32:26.196Z,6.78
2024-03-05T22:34:55.933Z,6.79
2024-03-05T22:37:24.248Z,6.85
2024-03-05T22:39:56.696Z,6.79
2024-03-05T22:42:24.625Z,6.74
2024-03-05T22:44:52.110Z,6.79
2024-03-05T22:47:19.979Z,6.79
2024-03-05T22:49:49.240Z,6.87
2024-03-05T22:52:22.961Z,6.89
2024-03-05T22:54:50.404Z,6.89
2024-03-05T22:57:24.015Z,6.91
2024-03-05T22:59:51.420Z,6.99
2024-03-05T23:02:19.490Z,7.00
2024-03-05T23:04:47.043Z,7.10
2024-03-05T23:07:24.065Z,7.02
2024-03-05T23:09:51.444Z,6.85
2024-03-05T23:12:19.302Z,6.70
2024-03-05T23:14:46.769Z,6.70
2024-03-05T23:17:19.238Z,6.76
2024-03-05T23:19:46.827Z,6.66
2024-03-05T23:22:14.753Z,6.64
2024-03-05T23:24:47.000Z,6.63
2024-03-05T23:27:15.183Z,6.55
2024-03-05T23:29:42.650Z,6.60
2024-03-05T23:32:17.810Z,6.57
2024-03-05T23:34:45.263Z,6.67
2024-03-05T23:37:18.334Z,6.50
2024-03-05T23:39:47.173Z,6.59
2024-03-05T23:42:15.225Z,6.62
2024-03-05T23:44:42.680Z,6.59
2024-03-05T23:47:15.300Z,6.60
2024-03-05T23:49:50.513Z,6.61
2024-03-05T23:52:18.351Z,6.76
2024-03-05T23:54:47.570Z,6.80
2024-03-05T23:57:22.953Z,6.68
2024-03-05T23:59:53.252Z,6.55
